Active alerts


No alerts

Thunder radar more information blitzortung!


Rain radar more information rain snow radar



Nearby METAR Reports

   
KNUQ - Mountain View, CA
Updated: Feb 17 2019 1:56 pm
Partly Cloudy  
Partly Cloudy  
   Wind: NW 10.4 mph
Wind: NW 10.4 mph
Temperature: 53.6°F
Dew Point: 37.4°F
Humidity: 54%
Barometer: 30.02 inHg
Clouds: Partly Cloudy
Visibility: 10 mi
Cloud details: Partly Cloudy 4300 ft
KNUQ 172156Z 32009KT 10SM SCT043 12/03 A3002 RMK AO2 SLP167 T01170033 $
KSFO - San Francisco, CA
Updated: Feb 17 2019 1:56 pm
Partly Cloudy  
Partly Cloudy  
   Wind: West 28.8 mph
Wind: West 28.8 mph
Temperature: 53.6°F
Dew Point: 35.6°F
Humidity: 51%
Barometer: 30.01 inHg
Clouds: Partly Cloudy
Visibility: 10 mi
Cloud details: Few Clouds 2600 ft,
Partly Cloudy 3600 ft
KSFO 172156Z 28025KT 10SM FEW026 SCT036 12/02 A3001 RMK AO2 PK WND 27032/2138 SLP163 T01220017
KSJC - San Jose, CA
Updated: Feb 17 2019 1:53 pm
Partly Cloudy  
Partly Cloudy  
   Wind: NW 17.3 mph
Wind: NW 17.3 mph
Temperature: 53.6°F
Dew Point: 39.2°F
Humidity: 58%
Barometer: 30.01 inHg
Clouds: Partly Cloudy
Visibility: 10 mi
Cloud details: Partly Cloudy 3500 ft,
Partly Cloudy 5000 ft,
Partly Cloudy 9000 ft
KSJC 172153Z 32015KT 10SM SCT035 SCT050 SCT090 12/04 A3001 RMK AO2 SLP163 TCU DSNT N-E T01170044
KOAK - Oakland, CA
Updated: Feb 17 2019 1:53 pm
Few Clouds  
Few Clouds  
   Wind: West 10.4 mph
Wind: West 10.4 mph
Temperature: 53.6°F
Dew Point: 35.6°F
Humidity: 51%
Barometer: 30.01 inHg
Clouds: Few Clouds
Visibility: 10 mi
Cloud details: Few Clouds 3000 ft,
Few Clouds 12000 ft
KOAK 172153Z 27009KT 10SM FEW030 FEW120 12/02 A3001 RMK AO2 SLP163 T01220017
KMRY - Monterey, CA
Updated: Feb 17 2019 1:54 pm
Few Clouds  
Few Clouds  
   Wind: West 18.4 mph
Wind: West 18.4 mph
Temperature: 51.8°F
Dew Point: 37.4°F
Humidity: 58%
Barometer: 30.04 inHg
Clouds: Few Clouds
Visibility: 10 mi
Cloud details: Few Clouds 2900 ft
KMRY 172154Z 27016KT 10SM FEW029 11/03 A3004 RMK AO2 SLP186 T01060033
KWYS - West Yellowstone, MT
Updated: Feb 17 2019 2:15 pm
Mostly Cloudy  
Mostly Cloudy  
   Wind: Calm
Wind: Calm
Temperature: 21.2°F
Dew Point: 8.6°F
Humidity: 58%
Barometer: 29.76 inHg
Clouds: Mostly Cloudy
Visibility: 10 mi
Cloud details: Mostly Cloudy 4900 ft,
Mostly Cloudy 5500 ft
KWYS 172215Z AUTO 00000KT 10SM BKN049 BKN055 M06/M13 A2976 RMK AO2
KDCA - Washington, DC
Updated: Feb 17 2019 1:52 pm
Overcast  
Overcast  
   Wind: SSE 6.9 mph
Wind: SSE 6.9 mph
Temperature: 39.2°F
Wind Chill: 33.8°F
Dew Point: 23°F
Humidity: 52%
Barometer: 30.04 inHg
Clouds: Overcast
Visibility: 10 mi
Cloud details: Overcast 4200 ft
KDCA 172152Z 15006KT 10SM OVC042 04/M05 A3004 RMK AO2 SLP171 T00441050
KIAD - Washington Dulles, VA
Updated: Feb 17 2019 1:52 pm
Overcast  
Overcast  
   Wind: SE 6.9 mph
Wind: SE 6.9 mph
Temperature: 37.4°F
Wind Chill: 32°F
Dew Point: 21.2°F
Humidity: 52%
Barometer: 30.01 inHg
Clouds: Overcast
Visibility: 10 mi
Cloud details: Overcast 4100 ft
KIAD 172152Z 14006KT 10SM OVC041 03/M06 A3001 RMK AO2 SLP165 T00281061
KMIA - Miami Beach, FL
Updated: Feb 17 2019 1:53 pm
Partly Cloudy  
Partly Cloudy  
   Wind: South 12.7 mph<br />Gust to 12.7 mph
Wind: South 12.7 mph
Gust to 12.7 mph
Temperature: 80.6°F
Heat Index: 84.2°F
Dew Point: 69.8°F
Humidity: 70%
Barometer: 29.99 inHg
Clouds: Partly Cloudy
Visibility: 10 mi
Cloud details: Partly Cloudy 2500 ft
KMIA 172153Z 17011G18KT 10SM SCT025 27/21 A2999 RMK AO2 SLP156 T02720211

Script developed by  Saratoga-weather.org Adapted for the template by  Weerstation Leuven

You find our weather info also at:

Weather Underground

Citizen Weather Observer Program (CWOP)

Equipment we use:

Weather-station
Ambient WS-1400-IP

Weather-program
Meteobridge

Weather-server
TP-LINK TL-MR3020

Ambient WS-1400-IP

Meteobridge

TP-LINK TL-MR3020